createdAt,value
2022-10-18T00:00:02.203Z,66.60
2022-10-18T00:02:31.307Z,67.70
2022-10-18T00:04:57.994Z,67.72
2022-10-18T00:07:24.454Z,67.79
2022-10-18T00:09:51.116Z,68.43
2022-10-18T00:12:17.767Z,67.64
2022-10-18T00:14:44.377Z,67.16
2022-10-18T00:17:11.082Z,66.24
2022-10-18T00:19:37.754Z,68.59
2022-10-18T00:22:04.405Z,69.71
2022-10-18T00:24:30.983Z,70.01
2022-10-18T00:26:57.588Z,69.22
2022-10-18T00:29:24.514Z,69.05
2022-10-18T00:31:51.143Z,68.52
2022-10-18T00:34:17.774Z,66.40
2022-10-18T00:36:45.352Z,64.91
2022-10-18T00:39:17.848Z,65.58
2022-10-18T00:41:45.665Z,65.60
2022-10-18T00:44:12.317Z,64.79
2022-10-18T00:46:49.428Z,64.34
2022-10-18T00:49:21.706Z,64.70
2022-10-18T00:52:00.919Z,65.27
2022-10-18T00:54:29.949Z,65.93
2022-10-18T00:56:56.859Z,66.51
2022-10-18T00:59:24.286Z,67.63
2022-10-18T01:01:51.136Z,67.64
2022-10-18T01:04:20.888Z,68.31
2022-10-18T01:06:50.558Z,67.94
2022-10-18T01:09:36.506Z,66.69
2022-10-18T01:12:25.906Z,66.01
2022-10-18T01:15:08.513Z,66.57
2022-10-18T01:18:12.755Z,66.52
2022-10-18T01:21:04.696Z,66.08
2022-10-18T01:24:08.328Z,65.56
2022-10-18T01:26:59.295Z,65.85
2022-10-18T01:29:44.137Z,64.82
2022-10-18T01:32:19.837Z,64.37
2022-10-18T01:34:51.280Z,65.56
2022-10-18T01:37:21.667Z,67.27
2022-10-18T01:39:50.998Z,65.28
2022-10-18T01:42:20.957Z,65.25
2022-10-18T01:44:50.837Z,66.45
2022-10-18T01:47:19.185Z,65.57
2022-10-18T01:49:46.114Z,67.89
2022-10-18T01:52:14.809Z,65.25
2022-10-18T01:54:46.073Z,66.30
2022-10-18T01:57:20.085Z,68.09
2022-10-18T02:00:06.152Z,72.63
2022-10-18T02:02:52.262Z,73.37
2022-10-18T02:05:38.701Z,68.87
2022-10-18T02:08:23.277Z,67.58
2022-10-18T02:11:04.366Z,67.78
2022-10-18T02:13:37.329Z,67.23
2022-10-18T02:16:12.179Z,67.21
2022-10-18T02:18:42.448Z,66.20
2022-10-18T02:21:12.925Z,66.10
2022-10-18T02:23:39.776Z,68.00
2022-10-18T02:26:06.881Z,67.80
2022-10-18T02:28:33.831Z,67.06
2022-10-18T02:31:06.002Z,66.47
2022-10-18T02:33:36.494Z,66.71
2022-10-18T02:36:26.661Z,66.63
2022-10-18T02:38:56.878Z,66.25
2022-10-18T02:41:28.200Z,66.19
2022-10-18T02:43:54.883Z,67.96
2022-10-18T02:46:22.342Z,67.50
2022-10-18T02:48:49.442Z,68.10
2022-10-18T02:51:16.729Z,66.43
2022-10-18T02:53:43.504Z,65.88
2022-10-18T02:56:10.073Z,66.23
2022-10-18T02:58:36.808Z,67.00
2022-10-18T03:01:04.179Z,65.88
2022-10-18T03:03:30.728Z,64.76
2022-10-18T03:05:57.260Z,65.13
2022-10-18T03:08:23.939Z,66.54
2022-10-18T03:10:50.621Z,66.41
2022-10-18T03:13:17.322Z,65.07
2022-10-18T03:15:44.151Z,65.10
2022-10-18T03:18:10.850Z,65.86
2022-10-18T03:20:37.561Z,66.81
2022-10-18T03:23:04.939Z,67.43
2022-10-18T03:25:34.714Z,68.34
2022-10-18T03:28:01.668Z,65.30
2022-10-18T03:30:28.469Z,65.46
2022-10-18T03:32:55.208Z,65.53
2022-10-18T03:35:22.395Z,65.17
2022-10-18T03:37:49.260Z,65.52
2022-10-18T03:40:16.107Z,66.20
2022-10-18T03:42:42.815Z,66.20
2022-10-18T03:45:10.064Z,67.55
2022-10-18T03:47:36.812Z,66.76
2022-10-18T03:50:03.847Z,68.44
2022-10-18T03:52:30.711Z,66.81
2022-10-18T03:54:57.746Z,66.69
2022-10-18T03:57:24.325Z,65.81
2022-10-18T03:59:51.066Z,67.02
2022-10-18T04:02:17.805Z,67.50
2022-10-18T04:04:44.500Z,65.87
2022-10-18T04:07:11.105Z,66.77
2022-10-18T04:09:37.923Z,66.68
2022-10-18T04:12:04.542Z,68.49
2022-10-18T04:14:31.151Z,67.21
2022-10-18T04:16:58.307Z,67.22
2022-10-18T04:19:24.841Z,66.96
2022-10-18T04:21:51.590Z,66.21
2022-10-18T04:24:18.186Z,65.95
2022-10-18T04:26:44.977Z,68.37
2022-10-18T04:29:11.727Z,69.50
2022-10-18T04:31:38.432Z,70.08
2022-10-18T04:34:05.068Z,69.53
2022-10-18T04:36:31.804Z,71.24
2022-10-18T04:38:58.475Z,70.93
2022-10-18T04:41:25.118Z,74.20
2022-10-18T04:43:51.587Z,71.33
2022-10-18T04:46:18.722Z,70.14
2022-10-18T04:48:45.345Z,68.54
2022-10-18T04:51:11.835Z,68.56
2022-10-18T04:53:38.669Z,67.95
2022-10-18T04:56:05.544Z,67.61
2022-10-18T04:58:32.953Z,69.54
2022-10-18T05:00:59.535Z,70.53
2022-10-18T05:03:26.338Z,69.78
2022-10-18T05:06:08.284Z,73.55
2022-10-18T05:08:37.422Z,75.48
2022-10-18T05:11:04.915Z,74.59
2022-10-18T05:13:31.618Z,73.38
2022-10-18T05:16:00.272Z,71.90
2022-10-18T05:18:27.373Z,70.30
2022-10-18T05:20:53.961Z,69.13
2022-10-18T05:23:20.490Z,68.18
2022-10-18T05:25:47.359Z,68.36
2022-10-18T05:28:38.741Z,70.67
2022-10-18T05:31:03.491Z,72.97
2022-10-18T05:33:30.965Z,72.16
2022-10-18T05:35:58.049Z,71.48
2022-10-18T05:38:26.407Z,74.51
2022-10-18T05:40:53.204Z,75.22
2022-10-18T05:43:20.013Z,75.36
2022-10-18T05:45:51.220Z,76.08
2022-10-18T05:48:18.656Z,72.80
2022-10-18T05:50:45.603Z,74.05
2022-10-18T05:53:18.521Z,75.17
2022-10-18T05:56:02.907Z,74.90
2022-10-18T05:58:29.580Z,74.63
2022-10-18T06:01:01.601Z,73.49
2022-10-18T06:03:30.932Z,73.82
2022-10-18T06:06:02.018Z,73.95
2022-10-18T06:08:28.699Z,74.97
2022-10-18T06:10:55.389Z,75.40
2022-10-18T06:13:22.343Z,75.71
2022-10-18T06:15:49.092Z,74.52
2022-10-18T06:18:16.517Z,73.40
2022-10-18T06:20:43.207Z,73.70
2022-10-18T06:23:09.698Z,72.93
2022-10-18T06:25:36.309Z,71.42
2022-10-18T06:28:09.043Z,72.65
2022-10-18T06:30:38.918Z,75.17
2022-10-18T06:33:05.738Z,75.09
2022-10-18T06:35:32.275Z,76.00
2022-10-18T06:37:58.729Z,76.74
2022-10-18T06:40:25.383Z,77.82
2022-10-18T06:43:00.205Z,77.91
2022-10-18T06:45:27.470Z,78.27
2022-10-18T06:47:54.027Z,79.35
2022-10-18T06:50:20.510Z,77.92
2022-10-18T06:52:48.895Z,78.01
2022-10-18T06:55:15.562Z,77.97
2022-10-18T06:57:42.129Z,77.40
2022-10-18T07:00:09.821Z,76.04
2022-10-18T07:02:37.775Z,73.42
2022-10-18T07:05:04.659Z,74.28
2022-10-18T07:07:32.019Z,72.52
2022-10-18T07:09:59.093Z,71.61
2022-10-18T07:12:25.679Z,71.96
2022-10-18T07:14:52.202Z,71.72
2022-10-18T07:17:18.911Z,70.50
2022-10-18T07:19:45.531Z,72.33
2022-10-18T07:22:12.185Z,71.95
2022-10-18T07:24:38.821Z,71.62
2022-10-18T07:27:05.488Z,71.58
2022-10-18T07:29:32.357Z,73.50
2022-10-18T07:31:59.063Z,72.11
2022-10-18T07:34:25.646Z,70.86
2022-10-18T07:36:52.114Z,68.56
2022-10-18T07:39:18.768Z,69.83
2022-10-18T07:41:45.644Z,69.26
2022-10-18T07:44:12.346Z,70.59
2022-10-18T07:46:39.438Z,72.23
2022-10-18T07:49:06.185Z,71.33
2022-10-18T07:51:34.765Z,71.08
2022-10-18T07:54:01.675Z,70.07
2022-10-18T07:56:28.471Z,69.74
2022-10-18T07:58:56.922Z,70.50
2022-10-18T08:01:24.839Z,68.75
2022-10-18T08:03:53.956Z,69.20
2022-10-18T08:06:23.096Z,70.34
2022-10-18T08:08:50.442Z,68.99
2022-10-18T08:11:20.166Z,67.16
2022-10-18T08:13:47.336Z,67.47
2022-10-18T08:16:17.728Z,68.80
2022-10-18T08:18:44.621Z,68.22
2022-10-18T08:21:14.033Z,68.86
2022-10-18T08:23:41.014Z,68.83
2022-10-18T08:26:13.765Z,66.43
2022-10-18T08:28:43.653Z,67.29
2022-10-18T08:31:18.828Z,69.08
2022-10-18T08:33:47.284Z,69.00
2022-10-18T08:36:20.161Z,68.06
2022-10-18T08:38:49.797Z,70.10
2022-10-18T08:41:25.790Z,68.27
2022-10-18T08:44:07.688Z,68.55
2022-10-18T08:46:45.338Z,67.55
2022-10-18T08:49:35.897Z,67.57
2022-10-18T08:52:04.184Z,66.79
2022-10-18T08:54:39.757Z,65.93
2022-10-18T08:57:16.165Z,64.41
2022-10-18T08:59:44.037Z,63.84
2022-10-18T09:02:10.589Z,65.51
2022-10-18T09:04:54.166Z,66.08
2022-10-18T09:07:55.526Z,65.84
2022-10-18T09:10:52.987Z,63.73
2022-10-18T09:13:22.344Z,65.30
2022-10-18T09:16:03.936Z,65.11
2022-10-18T09:19:09.205Z,66.33
2022-10-18T09:21:58.290Z,65.63
2022-10-18T09:24:41.411Z,65.47
2022-10-18T09:27:19.555Z,65.74
2022-10-18T09:30:20.763Z,66.84
2022-10-18T09:33:01.879Z,63.57
2022-10-18T09:36:16.425Z,63.21
2022-10-18T09:39:09.338Z,62.69
2022-10-18T09:41:58.096Z,61.87
2022-10-18T09:44:54.382Z,61.09
2022-10-18T09:48:03.511Z,60.03
2022-10-18T09:50:41.835Z,61.41
2022-10-18T09:53:20.207Z,61.07
2022-10-18T09:55:55.730Z,59.81
2022-10-18T09:58:25.189Z,59.24
2022-10-18T10:00:53.364Z,60.79
2022-10-18T10:03:20.006Z,60.28
2022-10-18T10:05:46.649Z,59.08
2022-10-18T10:08:13.666Z,60.23
2022-10-18T10:10:45.853Z,59.71
2022-10-18T10:13:26.110Z,59.91
2022-10-18T10:15:56.028Z,62.03
2022-10-18T10:18:55.189Z,60.35
2022-10-18T10:21:22.392Z,60.66
2022-10-18T10:23:58.647Z,60.34
2022-10-18T10:26:30.876Z,61.56
2022-10-18T10:28:57.609Z,60.53
2022-10-18T10:31:24.341Z,61.94
2022-10-18T10:34:05.477Z,62.54
2022-10-18T10:36:34.200Z,61.71
2022-10-18T10:39:20.607Z,63.00
2022-10-18T10:41:50.054Z,63.47
2022-10-18T10:44:23.483Z,63.92
2022-10-18T10:46:51.858Z,63.46
2022-10-18T10:49:39.242Z,62.94
2022-10-18T10:52:08.811Z,62.60
2022-10-18T10:54:52.219Z,63.19
2022-10-18T10:57:25.981Z,62.03
2022-10-18T10:59:56.160Z,61.13
2022-10-18T11:02:34.902Z,61.15
2022-10-18T11:05:29.238Z,61.21
2022-10-18T11:08:00.722Z,60.97
2022-10-18T11:10:50.546Z,60.15
2022-10-18T11:13:39.777Z,60.26
2022-10-18T11:16:34.694Z,60.75
2022-10-18T11:19:09.270Z,61.71
2022-10-18T11:22:28.184Z,59.96
2022-10-18T11:24:55.525Z,60.13
2022-10-18T11:27:35.810Z,59.94
2022-10-18T11:30:14.614Z,59.54
2022-10-18T11:32:54.200Z,59.69
2022-10-18T11:35:38.954Z,58.89
2022-10-18T11:38:11.092Z,57.20
2022-10-18T11:40:43.600Z,57.02
2022-10-18T11:43:57.498Z,56.08
2022-10-18T11:46:50.794Z,55.71
2022-10-18T11:49:41.536Z,55.68
2022-10-18T11:52:26.207Z,56.32
2022-10-18T11:55:12.299Z,58.74
2022-10-18T11:57:59.364Z,59.93
2022-10-18T12:00:44.838Z,59.10
2022-10-18T12:03:27.473Z,59.21
2022-10-18T12:05:57.341Z,58.41
2022-10-18T12:08:43.599Z,59.68
2022-10-18T12:11:16.713Z,60.55
2022-10-18T12:13:45.899Z,61.09
2022-10-18T12:16:12.891Z,60.60
2022-10-18T12:18:48.543Z,58.72
2022-10-18T12:21:21.893Z,60.25
2022-10-18T12:23:53.063Z,59.09
2022-10-18T12:26:20.744Z,59.28
2022-10-18T12:28:56.658Z,59.16
2022-10-18T12:31:48.269Z,58.79
2022-10-18T12:34:33.594Z,59.01
2022-10-18T12:37:31.159Z,58.62
2022-10-18T12:40:20.249Z,57.50
2022-10-18T12:42:51.290Z,57.24
2022-10-18T12:45:24.099Z,56.40
2022-10-18T12:47:50.999Z,57.63
2022-10-18T12:50:43.867Z,56.61
2022-10-18T12:53:18.292Z,54.39
2022-10-18T12:55:48.768Z,55.20
2022-10-18T12:58:15.538Z,55.69
2022-10-18T13:00:42.213Z,55.95
2022-10-18T13:03:11.890Z,55.17
2022-10-18T13:05:56.000Z,55.82
2022-10-18T13:08:29.095Z,56.64
2022-10-18T13:11:01.936Z,56.98
2022-10-18T13:13:40.332Z,56.49
2022-10-18T13:16:30.563Z,56.63
2022-10-18T13:19:09.796Z,55.27
2022-10-18T13:21:56.696Z,55.95
2022-10-18T13:24:45.240Z,56.13
2022-10-18T13:27:35.649Z,56.01
2022-10-18T13:30:23.488Z,55.09
2022-10-18T13:33:06.549Z,55.64
2022-10-18T13:36:04.066Z,54.59
2022-10-18T13:38:40.001Z,54.14
2022-10-18T13:41:12.491Z,55.50
2022-10-18T13:43:57.781Z,52.86
2022-10-18T13:46:33.551Z,54.76
2022-10-18T13:49:20.092Z,54.37
2022-10-18T13:51:55.706Z,53.43
2022-10-18T13:54:47.143Z,53.50
2022-10-18T13:57:52.904Z,52.67
2022-10-18T14:00:26.029Z,53.90
2022-10-18T14:03:05.245Z,52.18
2022-10-18T14:05:55.527Z,52.61
2022-10-18T14:08:25.327Z,54.41
2022-10-18T14:11:04.082Z,53.27
2022-10-18T14:14:02.832Z,53.98
2022-10-18T14:16:50.152Z,53.54
2022-10-18T14:19:30.291Z,54.80
2022-10-18T14:22:20.913Z,54.52
2022-10-18T14:24:59.004Z,54.80
2022-10-18T14:27:35.123Z,54.35
2022-10-18T14:30:19.616Z,57.42
2022-10-18T14:32:54.443Z,60.14
2022-10-18T14:35:34.100Z,61.03
2022-10-18T14:38:02.160Z,62.98
2022-10-18T14:40:31.856Z,63.82
2022-10-18T14:43:20.046Z,64.91
2022-10-18T14:45:46.687Z,63.83
2022-10-18T14:48:15.602Z,64.76
2022-10-18T14:50:44.557Z,66.71
2022-10-18T14:53:17.683Z,65.80
2022-10-18T14:55:54.743Z,67.10
2022-10-18T14:58:22.508Z,67.94
2022-10-18T15:00:49.557Z,69.45
2022-10-18T15:03:29.655Z,70.76
2022-10-18T15:06:05.339Z,70.26
2022-10-18T15:08:44.190Z,69.54
2022-10-18T15:11:17.216Z,66.58
2022-10-18T15:13:50.627Z,67.58
2022-10-18T15:16:20.482Z,67.27
2022-10-18T15:19:30.775Z,69.31
2022-10-18T15:25:24.328Z,69.66
2022-10-18T15:27:56.547Z,68.82
2022-10-18T15:30:28.234Z,69.68
2022-10-18T15:32:57.838Z,70.03
2022-10-18T15:35:33.027Z,70.36
2022-10-18T15:38:04.793Z,69.21
2022-10-18T15:40:35.094Z,67.76
2022-10-18T15:43:06.100Z,69.31
2022-10-18T15:45:36.765Z,68.47
2022-10-18T15:48:06.973Z,67.00
2022-10-18T15:50:37.430Z,66.82
2022-10-18T15:53:43.281Z,68.60
2022-10-18T15:56:35.814Z,67.04
2022-10-18T15:59:06.317Z,67.48
2022-10-18T16:01:44.722Z,67.75
2022-10-18T16:04:25.563Z,68.70
2022-10-18T16:07:00.187Z,67.31
2022-10-18T16:09:28.924Z,66.45
2022-10-18T16:11:57.464Z,67.62
2022-10-18T16:14:27.398Z,67.38
2022-10-18T16:16:56.743Z,69.31
2022-10-18T16:19:23.631Z,67.24
2022-10-18T16:21:52.066Z,69.29
2022-10-18T16:24:18.744Z,68.80
2022-10-18T16:26:46.091Z,67.24
2022-10-18T16:29:24.227Z,67.94
2022-10-18T16:31:53.827Z,67.61
2022-10-18T16:34:20.503Z,67.72
2022-10-18T16:36:47.157Z,68.76
2022-10-18T16:39:18.936Z,69.06
2022-10-18T16:41:45.892Z,68.75
2022-10-18T16:44:13.058Z,68.66
2022-10-18T16:46:40.940Z,70.99
2022-10-18T16:49:12.707Z,73.14
2022-10-18T16:51:39.373Z,72.40
2022-10-18T16:54:05.959Z,72.10
2022-10-18T16:56:33.772Z,71.43
2022-10-18T16:59:00.872Z,70.09
2022-10-18T17:01:27.530Z,69.49
2022-10-18T17:03:55.266Z,69.08
2022-10-18T17:06:23.910Z,69.70
2022-10-18T17:08:52.159Z,70.63
2022-10-18T17:11:20.249Z,70.36
2022-10-18T17:13:47.129Z,70.27
2022-10-18T17:16:24.706Z,70.38
2022-10-18T17:18:51.885Z,71.13
2022-10-18T17:21:18.750Z,71.22
2022-10-18T17:23:45.426Z,69.47
2022-10-18T17:26:29.640Z,70.88
2022-10-18T17:29:01.704Z,70.49
2022-10-18T17:31:30.374Z,70.55
2022-10-18T17:33:59.403Z,70.38
2022-10-18T17:36:26.613Z,71.68
2022-10-18T17:38:54.680Z,70.34
2022-10-18T17:41:21.662Z,71.67
2022-10-18T17:43:48.996Z,71.46
2022-10-18T17:46:18.081Z,73.26
2022-10-18T17:48:45.475Z,71.26
2022-10-18T17:51:15.695Z,70.89
2022-10-18T17:53:42.741Z,71.97
2022-10-18T17:56:11.894Z,72.59
2022-10-18T17:58:38.916Z,72.62
2022-10-18T18:01:11.357Z,70.72
2022-10-18T18:03:38.101Z,70.91
2022-10-18T18:06:23.046Z,70.13
2022-10-18T18:08:50.734Z,71.03
2022-10-18T18:11:18.088Z,72.46
2022-10-18T18:13:45.074Z,70.92
2022-10-18T18:16:14.461Z,69.09
2022-10-18T18:18:41.572Z,69.11
2022-10-18T18:21:08.659Z,66.90
2022-10-18T18:23:35.514Z,66.12
2022-10-18T18:26:02.174Z,65.70
2022-10-18T18:28:28.858Z,66.10
2022-10-18T18:30:55.835Z,65.67
2022-10-18T18:33:22.559Z,65.27
2022-10-18T18:35:57.315Z,66.16
2022-10-18T18:38:24.949Z,66.91
2022-10-18T18:41:03.964Z,68.03
2022-10-18T18:43:31.008Z,67.98
2022-10-18T18:45:58.118Z,67.57
2022-10-18T18:48:26.784Z,69.19
2022-10-18T18:50:53.499Z,68.55
2022-10-18T18:53:20.269Z,67.88
2022-10-18T18:55:48.406Z,68.03
2022-10-18T18:58:15.048Z,68.94
2022-10-18T19:00:44.444Z,70.02
2022-10-18T19:03:12.225Z,71.42
2022-10-18T19:05:39.060Z,71.55
2022-10-18T19:08:06.428Z,73.06
2022-10-18T19:10:33.293Z,71.20
2022-10-18T19:13:00.529Z,70.80
2022-10-18T19:15:27.129Z,70.39
2022-10-18T19:17:55.568Z,69.00
2022-10-18T19:20:22.532Z,68.59
2022-10-18T19:22:49.555Z,67.80
2022-10-18T19:25:16.220Z,70.14
2022-10-18T19:27:42.902Z,68.04
2022-10-18T19:30:11.276Z,67.96
2022-10-18T19:32:37.905Z,67.65
2022-10-18T19:35:05.925Z,68.10
2022-10-18T19:37:33.033Z,67.91
2022-10-18T19:40:00.111Z,67.27
2022-10-18T19:42:28.963Z,66.39
2022-10-18T19:44:57.968Z,65.94
2022-10-18T19:47:24.614Z,66.04
2022-10-18T19:49:52.761Z,66.71
2022-10-18T19:52:19.660Z,66.24
2022-10-18T19:54:49.836Z,67.69
2022-10-18T19:57:16.655Z,69.28
2022-10-18T19:59:46.402Z,68.96
2022-10-18T20:02:15.128Z,68.31
2022-10-18T20:04:42.024Z,69.40
2022-10-18T20:07:08.965Z,69.07
2022-10-18T20:09:35.729Z,68.81
2022-10-18T20:12:02.583Z,67.60
2022-10-18T20:14:29.237Z,67.28
2022-10-18T20:16:55.966Z,66.63
2022-10-18T20:19:22.587Z,65.63
2022-10-18T20:21:49.306Z,65.55
2022-10-18T20:24:15.914Z,66.10
2022-10-18T20:26:43.768Z,65.96
2022-10-18T20:29:10.821Z,65.99
2022-10-18T20:31:39.119Z,65.85
2022-10-18T20:34:10.976Z,65.59
2022-10-18T20:36:38.390Z,65.80
2022-10-18T20:39:05.773Z,65.94
2022-10-18T20:41:35.750Z,65.68
2022-10-18T20:44:08.700Z,65.94
2022-10-18T20:46:37.371Z,65.95
2022-10-18T20:49:06.548Z,66.28
2022-10-18T20:51:33.793Z,66.52
2022-10-18T20:54:02.360Z,65.73
2022-10-18T20:56:31.445Z,65.26
2022-10-18T20:58:58.309Z,66.05
2022-10-18T21:01:28.158Z,66.52
2022-10-18T21:03:56.912Z,67.46
2022-10-18T21:06:28.909Z,68.22
2022-10-18T21:08:58.139Z,68.72
2022-10-18T21:11:26.305Z,68.82
2022-10-18T21:13:55.215Z,68.05
2022-10-18T21:16:22.349Z,68.56
2022-10-18T21:18:48.968Z,69.41
2022-10-18T21:21:20.899Z,69.56
2022-10-18T21:23:47.559Z,68.28
2022-10-18T21:26:23.115Z,67.77
2022-10-18T21:28:51.155Z,70.28
2022-10-18T21:31:20.328Z,69.63
2022-10-18T21:33:51.819Z,67.68
2022-10-18T21:36:18.744Z,67.58
2022-10-18T21:38:45.871Z,67.50
2022-10-18T21:41:14.715Z,68.05
2022-10-18T21:43:43.625Z,67.74
2022-10-18T21:46:11.481Z,68.14
2022-10-18T21:48:42.816Z,67.93
2022-10-18T21:51:10.460Z,67.56
2022-10-18T21:53:37.421Z,68.27
2022-10-18T21:56:12.883Z,66.81
2022-10-18T21:58:40.519Z,67.25
2022-10-18T22:01:13.143Z,66.62
2022-10-18T22:03:40.527Z,66.89
2022-10-18T22:06:14.236Z,68.14
2022-10-18T22:09:01.516Z,68.72
2022-10-18T22:11:34.866Z,68.52
2022-10-18T22:14:01.954Z,69.04
2022-10-18T22:16:28.904Z,69.90
2022-10-18T22:19:01.944Z,71.39
2022-10-18T22:21:29.529Z,73.50
2022-10-18T22:23:57.583Z,75.45
2022-10-18T22:26:27.213Z,74.78
2022-10-18T22:29:15.603Z,72.69
2022-10-18T22:31:51.524Z,71.32
2022-10-18T22:34:21.584Z,71.08
2022-10-18T22:36:52.034Z,70.82
2022-10-18T22:39:18.770Z,70.35
2022-10-18T22:41:46.498Z,70.91
2022-10-18T22:44:14.548Z,70.39
2022-10-18T22:46:41.779Z,70.08
2022-10-18T22:49:08.793Z,72.15
2022-10-18T22:54:07.451Z,74.13
2022-10-18T22:56:34.188Z,72.20
2022-10-18T22:59:00.994Z,70.93
2022-10-18T23:01:27.660Z,73.05
2022-10-18T23:03:56.758Z,73.79
2022-10-18T23:06:24.809Z,72.54
2022-10-18T23:08:53.108Z,72.69
2022-10-18T23:11:20.007Z,72.66
2022-10-18T23:13:47.015Z,71.84
2022-10-18T23:16:14.424Z,72.22
2022-10-18T23:18:41.159Z,73.27
2022-10-18T23:21:12.979Z,73.88
2022-10-18T23:23:41.925Z,73.16
2022-10-18T23:26:14.500Z,73.01
2022-10-18T23:28:41.824Z,74.15
2022-10-18T23:31:14.526Z,73.44
2022-10-18T23:33:41.648Z,72.70
2022-10-18T23:36:09.296Z,72.19
2022-10-18T23:38:37.755Z,72.32
2022-10-18T23:41:06.322Z,72.51
2022-10-18T23:43:33.601Z,73.70
2022-10-18T23:46:00.844Z,76.15
2022-10-18T23:48:27.532Z,73.77
2022-10-18T23:50:54.477Z,72.95
2022-10-18T23:53:21.826Z,71.99
2022-10-18T23:55:58.658Z,71.56
2022-10-18T23:58:26.623Z,72.37
